Time;durP1;ratioP1;P1;durP2;ratioP2;P2;SDS_P1;SDS_P2;PMS_P1;PMS_P2;Temp;Humidity;BMP_temperature;BMP_pressure;BME280_temperature;BME280_humidity;BME280_pressure;Samples;Min_cycle;Max_cycle;Signal;HPM_P1;HPM_P2
2023/09/18 00:01:08;;;;;;;1.40;1.30;;;;;;;17.67;100.00;97805.88;1223824;75;2918359;-72
2023/09/18 00:03:43;;;;;;;1.60;1.50;;;;;;;17.73;100.00;97792.72;1223877;75;2922845;-74
2023/09/18 00:06:16;;;;;;;2.10;1.90;;;;;;;17.70;100.00;97798.53;1223240;75;2916794;-70
2023/09/18 00:08:50;;;;;;;1.75;1.65;;;;;;;17.63;100.00;97805.41;1224750;75;2921987;-72
2023/09/18 00:11:22;;;;;;;2.05;1.85;;;;;;;17.42;100.00;97797.59;1224642;75;2913515;-73
2023/09/18 00:13:55;;;;;;;1.95;1.75;;;;;;;17.48;100.00;97786.44;1224694;75;2924717;-74
2023/09/18 00:16:28;;;;;;;1.90;1.70;;;;;;;17.63;100.00;97788.78;1224030;75;2925395;-71
2023/09/18 00:19:03;;;;;;;1.95;1.65;;;;;;;17.65;100.00;97780.72;1224534;75;2925149;-73
2023/09/18 00:21:36;;;;;;;1.80;1.70;;;;;;;17.64;100.00;97784.78;1224195;75;2922698;-75
2023/09/18 00:24:11;;;;;;;1.80;1.70;;;;;;;17.53;100.00;97780.09;1224962;75;2929897;-75
2023/09/18 00:26:47;;;;;;;1.90;1.70;;;;;;;17.48;100.00;97789.22;1225063;75;2913386;-72
2023/09/18 00:29:19;;;;;;;2.10;1.90;;;;;;;17.42;100.00;97783.75;1225075;75;2923879;-74
2023/09/18 00:31:52;;;;;;;2.30;2.10;;;;;;;17.34;100.00;97782.06;1225007;75;2916564;-75
2023/09/18 00:34:27;;;;;;;2.30;2.10;;;;;;;17.41;100.00;97784.25;1220047;75;3116187;-76
2023/09/18 00:37:00;;;;;;;2.10;1.90;;;;;;;17.36;100.00;97777.50;1224682;75;2924928;-74
2023/09/18 00:39:33;;;;;;;1.75;1.65;;;;;;;17.39;100.00;97782.03;1225489;75;2919584;-73
2023/09/18 00:42:06;;;;;;;2.10;1.90;;;;;;;17.34;100.00;97779.28;1225224;75;2898235;-72
2023/09/18 00:44:38;;;;;;;2.05;1.85;;;;;;;17.37;100.00;97770.72;1224589;75;2915645;-74
2023/09/18 00:47:12;;;;;;;1.85;1.70;;;;;;;17.23;100.00;97769.09;1225171;75;2922698;-72
2023/09/18 00:49:52;;;;;;;1.70;1.60;;;;;;;17.28;100.00;97771.06;1224117;75;2921187;-73
2023/09/18 00:52:26;;;;;;;1.90;1.70;;;;;;;17.23;100.00;97756.00;1225074;75;2913787;-72
2023/09/18 00:55:00;;;;;;;2.05;1.65;;;;;;;17.28;100.00;97765.53;1224774;75;2920140;-73
2023/09/18 00:57:33;;;;;;;1.65;1.55;;;;;;;17.26;100.00;97762.53;1226113;75;2912325;-74
2023/09/18 01:00:07;;;;;;;1.80;1.70;;;;;;;17.28;100.00;97757.22;1226142;75;2912221;-72
2023/09/18 01:02:40;;;;;;;2.05;1.85;;;;;;;17.20;100.00;97762.59;1225180;75;2915250;-74
2023/09/18 01:05:16;;;;;;;1.40;1.30;;;;;;;17.23;100.00;97758.78;1225711;75;2914199;-72
2023/09/18 01:07:49;;;;;;;1.65;1.55;;;;;;;17.10;100.00;97761.44;1225195;75;2920930;-73
2023/09/18 01:10:26;;;;;;;1.70;1.60;;;;;;;17.19;100.00;97752.03;1226124;75;2914908;-71
2023/09/18 01:13:06;;;;;;;1.60;1.50;;;;;;;17.19;100.00;97740.97;1225927;75;2923662;-72
2023/09/18 01:15:46;;;;;;;1.60;1.50;;;;;;;17.20;100.00;97740.47;1223480;75;2924768;-74
2023/09/18 01:18:19;;;;;;;3.00;1.75;;;;;;;16.94;100.00;97743.00;1224773;75;2921474;-75
2023/09/18 01:20:55;;;;;;;2.20;1.90;;;;;;;16.73;100.00;97748.91;1225935;75;2917064;-74
2023/09/18 01:23:30;;;;;;;2.50;2.30;;;;;;;16.74;100.00;97742.13;1224775;75;2925086;-73
2023/09/18 01:26:03;;;;;;;2.30;2.10;;;;;;;16.92;100.00;97743.50;1225113;75;2920028;-76
2023/09/18 01:28:36;;;;;;;1.95;1.75;;;;;;;16.79;100.00;97738.59;1224356;75;2919346;-75
2023/09/18 01:31:08;;;;;;;2.30;1.95;;;;;;;16.77;100.00;97729.28;1224853;75;2915724;-72
2023/09/18 01:33:42;;;;;;;2.35;2.00;;;;;;;16.77;100.00;97726.53;1225994;75;2919608;-72
2023/09/18 01:36:16;;;;;;;2.30;2.10;;;;;;;16.62;100.00;97729.66;1225346;75;2913131;-73
2023/09/18 01:38:53;;;;;;;2.55;2.05;;;;;;;16.66;100.00;97737.66;1224964;75;2929255;-72
2023/09/18 01:41:26;;;;;;;1.90;1.80;;;;;;;16.53;100.00;97746.56;1224066;75;2922254;-75
2023/09/18 01:43:59;;;;;;;2.20;2.00;;;;;;;16.41;100.00;97740.38;1223413;75;2918840;-74
2023/09/18 01:46:32;;;;;;;2.95;2.40;;;;;;;16.46;100.00;97733.31;1225778;75;2920912;-72
2023/09/18 01:49:05;;;;;;;2.20;2.00;;;;;;;16.38;100.00;97727.59;1224936;75;2918561;-75
2023/09/18 01:51:37;;;;;;;3.05;2.75;;;;;;;16.23;100.00;97722.41;1224725;75;2916146;-73
2023/09/18 01:54:13;;;;;;;3.20;2.90;;;;;;;16.26;100.00;97715.09;1224399;75;2930871;-73
2023/09/18 01:56:45;;;;;;;2.90;2.60;;;;;;;16.43;100.00;97714.97;1224452;75;2927281;-73
2023/09/18 01:59:18;;;;;;;2.70;2.45;;;;;;;16.52;100.00;97714.66;1224319;75;2913367;-74
2023/09/18 02:01:51;;;;;;;2.65;2.45;;;;;;;16.33;100.00;97712.56;1224257;75;2935046;-72
2023/09/18 02:04:25;;;;;;;2.90;2.65;;;;;;;16.42;100.00;97696.91;1224640;75;2926882;-76
2023/09/18 02:06:59;;;;;;;2.30;2.10;;;;;;;16.52;100.00;97704.34;1224066;75;2924701;-74
2023/09/18 02:09:35;;;;;;;2.35;2.15;;;;;;;16.53;100.00;97711.38;1225022;75;2957283;-71
2023/09/18 02:12:08;;;;;;;2.30;2.10;;;;;;;16.52;100.00;97703.59;1224305;75;2922395;-73
2023/09/18 02:14:41;;;;;;;3.15;2.85;;;;;;;16.28;100.00;97709.81;1225192;75;2923909;-72
2023/09/18 02:17:13;;;;;;;2.85;2.50;;;;;;;16.29;100.00;97697.50;1224387;75;2924930;-73
2023/09/18 02:19:46;;;;;;;2.30;2.10;;;;;;;16.20;100.00;97698.56;1224898;75;2916844;-72
2023/09/18 02:22:18;;;;;;;2.95;2.65;;;;;;;16.32;100.00;97699.25;1224055;75;2917893;-74
2023/09/18 02:24:54;;;;;;;2.30;2.10;;;;;;;16.17;100.00;97685.78;1225280;75;2932259;-72
2023/09/18 02:27:26;;;;;;;2.50;2.30;;;;;;;16.09;100.00;97682.84;1225098;75;2918606;-74
2023/09/18 02:29:59;;;;;;;2.00;1.80;;;;;;;16.26;100.00;97681.94;1224020;75;2922332;-71
2023/09/18 02:32:32;;;;;;;2.05;1.85;;;;;;;16.31;100.00;97683.94;1225469;75;2920190;-73
2023/09/18 02:35:07;;;;;;;2.50;2.00;;;;;;;16.13;100.00;97685.31;1224265;75;2940228;-72
2023/09/18 02:37:39;;;;;;;2.30;2.10;;;;;;;16.20;100.00;97687.53;1224674;75;2915161;-76
2023/09/18 02:40:15;;;;;;;2.10;1.90;;;;;;;16.06;100.00;97688.63;1225877;75;2917237;-72
2023/09/18 02:42:48;;;;;;;2.35;2.05;;;;;;;15.90;100.00;97691.00;1224146;75;2933348;-70
2023/09/18 02:45:21;;;;;;;2.55;2.35;;;;;;;15.76;100.00;97687.28;1223463;75;2928356;-74
2023/09/18 02:47:53;;;;;;;4.10;3.25;;;;;;;15.62;100.00;97688.34;1224980;75;2925987;-74
2023/09/18 02:50:26;;;;;;;3.65;3.25;;;;;;;15.58;100.00;97679.56;1224763;75;2945197;-75
2023/09/18 02:52:59;;;;;;;4.60;4.10;;;;;;;15.40;100.00;97682.94;1223488;75;2917292;-72
2023/09/18 02:55:34;;;;;;;4.20;3.80;;;;;;;15.44;100.00;97686.94;1225095;75;2916327;-72
2023/09/18 02:58:08;;;;;;;6.00;5.10;;;;;;;15.46;100.00;97678.88;1224234;75;2922769;-73
2023/09/18 03:00:46;;;;;;;15.30;6.15;;;;;;;15.36;100.00;97682.44;1225133;75;2918200;-71
2023/09/18 03:03:20;;;;;;;7.45;5.10;;;;;;;15.69;100.00;97682.28;1223985;75;2935662;-74
2023/09/18 03:05:52;;;;;;;4.20;3.70;;;;;;;15.79;100.00;97679.25;1221908;75;3079984;-72
2023/09/18 03:08:25;;;;;;;5.85;5.25;;;;;;;15.51;100.00;97691.16;1224120;75;2918550;-71
2023/09/18 03:11:00;;;;;;;4.55;4.15;;;;;;;15.69;100.00;97685.03;1222130;75;2955685;-72
2023/09/18 03:13:34;;;;;;;5.60;4.65;;;;;;;15.74;100.00;97689.06;1223432;75;2925734;-72
2023/09/18 03:16:07;;;;;;;5.05;4.45;;;;;;;15.72;100.00;97677.78;1224543;75;2921904;-76
2023/09/18 03:18:39;;;;;;;4.40;3.65;;;;;;;15.84;100.00;97681.22;1223797;75;2925681;-73
2023/09/18 03:21:12;;;;;;;2.90;2.60;;;;;;;15.91;100.00;97689.72;1224723;75;2920321;-73
2023/09/18 03:23:45;;;;;;;2.75;2.55;;;;;;;16.03;100.00;97689.66;1223527;75;2924116;-72
2023/09/18 03:26:20;;;;;;;4.25;3.85;;;;;;;15.68;100.00;97675.28;1224242;75;2920890;-71
2023/09/18 03:28:53;;;;;;;5.15;4.65;;;;;;;15.79;100.00;97668.97;1193438;75;5447528;-72
2023/09/18 03:31:26;;;;;;;4.00;3.60;;;;;;;15.84;100.00;97661.91;1224016;75;2939280;-75
2023/09/18 03:33:58;;;;;;;3.25;2.95;;;;;;;15.98;100.00;97652.53;1223709;75;2919428;-73
2023/09/18 03:36:31;;;;;;;3.00;2.75;;;;;;;15.96;100.00;97655.78;1224500;75;2926359;-73
2023/09/18 03:39:04;;;;;;;3.40;3.10;;;;;;;15.94;100.00;97661.06;1223918;75;2919872;-72
2023/09/18 03:41:39;;;;;;;2.35;2.15;;;;;;;15.88;100.00;97659.63;1223967;75;2924578;-75
2023/09/18 03:44:12;;;;;;;2.45;2.25;;;;;;;15.95;100.00;97661.84;1225937;75;2914712;-74
2023/09/18 03:46:44;;;;;;;2.30;2.10;;;;;;;15.95;100.00;97667.38;1224162;75;2913964;-73
2023/09/18 03:49:17;;;;;;;2.00;1.80;;;;;;;15.97;100.00;97670.38;1224865;75;2914646;-73
2023/09/18 03:51:49;;;;;;;1.90;1.80;;;;;;;15.90;100.00;97665.41;1222650;75;2926134;-75
2023/09/18 03:54:22;;;;;;;2.25;2.05;;;;;;;15.74;100.00;97664.22;1224717;75;2925893;-74
2023/09/18 03:56:57;;;;;;;2.50;2.30;;;;;;;15.69;100.00;97664.97;1225112;75;2917076;-74
2023/09/18 03:59:30;;;;;;;2.95;2.00;;;;;;;15.77;100.00;97666.69;1224210;75;2926848;-74
2023/09/18 04:02:02;;;;;;;2.85;1.95;;;;;;;15.73;100.00;97652.44;1224777;75;2927663;-76
2023/09/18 04:04:35;;;;;;;2.10;1.90;;;;;;;15.76;100.00;97650.66;1223602;75;2914380;-70
2023/09/18 04:07:11;;;;;;;2.10;1.80;;;;;;;15.75;100.00;97643.63;1225118;75;2922420;-73
2023/09/18 04:09:43;;;;;;;2.20;2.00;;;;;;;15.77;100.00;97633.59;1222315;75;3018807;-75
2023/09/18 04:12:19;;;;;;;2.30;2.05;;;;;;;15.72;100.00;97630.88;1224192;75;2917273;-70
2023/09/18 04:14:52;;;;;;;2.80;2.40;;;;;;;15.66;100.00;97621.84;1224957;75;2918914;-73
2023/09/18 04:17:25;;;;;;;6.15;3.35;;;;;;;15.49;100.00;97613.66;1224498;75;2921273;-74
2023/09/18 04:19:57;;;;;;;3.20;2.90;;;;;;;15.45;100.00;97621.47;1224276;75;2925080;-73
2023/09/18 04:22:30;;;;;;;2.95;2.60;;;;;;;15.51;100.00;97614.66;1224357;75;2929968;-76
2023/09/18 04:25:05;;;;;;;3.60;3.25;;;;;;;15.32;100.00;97622.00;1225023;75;2920825;-74
2023/09/18 04:27:40;;;;;;;4.40;4.00;;;;;;;15.50;100.00;97632.47;1221210;75;3073177;-72
2023/09/18 04:30:14;;;;;;;3.25;2.95;;;;;;;15.57;100.00;97622.16;1224977;75;2930048;-73
2023/09/18 04:32:47;;;;;;;3.40;3.10;;;;;;;15.52;100.00;97618.16;1223759;75;2920619;-76
2023/09/18 04:35:20;;;;;;;2.50;2.30;;;;;;;15.50;100.00;97620.69;1220893;75;2949579;-73
2023/09/18 04:37:52;;;;;;;2.35;2.15;;;;;;;15.58;100.00;97620.88;1221997;75;2928849;-73
2023/09/18 04:40:26;;;;;;;2.30;2.10;;;;;;;15.55;100.00;97628.19;1224704;75;2916066;-74
2023/09/18 04:43:02;;;;;;;4.20;3.80;;;;;;;15.46;100.00;97629.22;1223753;75;2926078;-72
2023/09/18 04:45:35;;;;;;;7.95;7.15;;;;;;;15.18;100.00;97628.63;1224001;75;2920778;-74
2023/09/18 04:48:09;;;;;;;5.95;5.35;;;;;;;15.18;100.00;97615.56;1223722;75;2923986;-73
2023/09/18 04:50:41;;;;;;;6.75;6.05;;;;;;;15.13;100.00;97600.56;1222666;75;2961129;-72
2023/09/18 04:53:14;;;;;;;5.55;4.85;;;;;;;15.48;100.00;97606.66;1221628;75;2957766;-73
2023/09/18 04:55:49;;;;;;;5.05;4.40;;;;;;;15.31;100.00;97599.19;1222668;75;2925115;-74
2023/09/18 04:58:24;;;;;;;4.00;3.60;;;;;;;15.47;100.00;97605.91;1222324;75;2932595;-73
2023/09/18 05:01:01;;;;;;;5.05;4.55;;;;;;;15.54;100.00;97604.63;1224212;75;2924019;-73
2023/09/18 05:03:34;;;;;;;5.40;4.50;;;;;;;15.54;100.00;97604.63;1224839;75;2923097;-74
2023/09/18 05:06:06;;;;;;;8.85;7.95;;;;;;;15.46;100.00;97606.41;1221608;75;2996953;-73
2023/09/18 05:08:39;;;;;;;6.95;5.95;;;;;;;15.35;100.00;97604.47;1210279;75;3916885;-73
2023/09/18 05:11:12;;;;;;;4.95;4.45;;;;;;;15.52;100.00;97601.63;1224584;75;2919419;-75
2023/09/18 05:13:47;;;;;;;3.85;3.40;;;;;;;15.68;100.00;97608.28;1221793;75;2960347;-73
2023/09/18 05:16:20;;;;;;;3.30;3.00;;;;;;;15.63;100.00;97612.56;1223922;75;2919820;-74
2023/09/18 05:18:56;;;;;;;3.20;2.60;;;;;;;15.68;100.00;97613.78;1224300;75;2926980;-72
2023/09/18 05:21:29;;;;;;;3.00;2.70;;;;;;;15.73;100.00;97624.84;1223733;75;2916613;-74
2023/09/18 05:24:02;;;;;;;2.45;2.25;;;;;;;15.85;100.00;97631.03;1224890;75;2920809;-73
2023/09/18 05:26:35;;;;;;;3.05;2.55;;;;;;;15.69;100.00;97621.56;1224150;75;2922286;-76
2023/09/18 05:29:10;;;;;;;3.35;2.70;;;;;;;15.85;100.00;97627.50;1224161;75;2919176;-74
2023/09/18 05:31:43;;;;;;;3.50;2.60;;;;;;;15.88;100.00;97626.50;1224223;75;2917948;-75
2023/09/18 05:34:16;;;;;;;2.90;2.60;;;;;;;15.99;100.00;97612.59;1224978;75;2927398;-74
2023/09/18 05:36:49;;;;;;;6.40;2.20;;;;;;;16.06;100.00;97617.56;1222996;75;2930936;-74
2023/09/18 05:39:21;;;;;;;3.35;2.45;;;;;;;16.15;100.00;97611.72;1224322;75;2924615;-74
2023/09/18 05:41:54;;;;;;;3.10;2.80;;;;;;;16.21;100.00;97613.69;1223616;75;2926347;-75
2023/09/18 05:44:29;;;;;;;2.55;2.35;;;;;;;16.32;100.00;97613.59;1223758;75;2939062;-73
2023/09/18 05:47:03;;;;;;;2.60;2.30;;;;;;;16.42;100.00;97609.22;1224511;75;2921341;-74
2023/09/18 05:49:36;;;;;;;2.35;2.15;;;;;;;16.47;100.00;97602.16;1223563;75;2933325;-72
2023/09/18 05:52:08;;;;;;;2.30;2.10;;;;;;;16.53;100.00;97606.38;1223964;75;2939766;-75
2023/09/18 05:54:41;;;;;;;2.40;2.20;;;;;;;16.61;100.00;97607.28;1224354;75;2922122;-74
2023/09/18 05:57:14;;;;;;;3.15;2.85;;;;;;;16.65;100.00;97601.47;1224053;75;2917770;-73
2023/09/18 05:59:49;;;;;;;2.90;2.60;;;;;;;16.93;100.00;97600.44;1224622;75;2925543;-71
2023/09/18 06:02:22;;;;;;;2.75;2.35;;;;;;;16.91;100.00;97611.28;1225024;75;2928658;-74
2023/09/18 06:05:00;;;;;;;3.45;3.00;;;;;;;17.09;100.00;97593.97;1223800;75;2921736;-76
2023/09/18 06:07:33;;;;;;;3.20;2.90;;;;;;;17.20;100.00;97591.06;1224937;75;2924987;-73
2023/09/18 06:10:06;;;;;;;2.90;2.50;;;;;;;17.35;100.00;97579.56;1224855;75;2920052;-73
2023/09/18 06:12:41;;;;;;;2.55;2.35;;;;;;;17.49;100.00;97585.16;1223701;75;2931172;-71
2023/09/18 06:15:17;;;;;;;2.80;2.60;;;;;;;17.73;100.00;97584.31;1224296;75;2922675;-73
2023/09/18 06:17:49;;;;;;;3.70;3.40;;;;;;;17.63;100.00;97581.16;1223065;75;2924796;-73
2023/09/18 06:20:22;;;;;;;5.00;4.50;;;;;;;17.69;100.00;97579.06;1223987;75;2929230;-75
2023/09/18 06:22:55;;;;;;;5.80;5.20;;;;;;;17.83;100.00;97586.19;1224382;75;2924549;-74
2023/09/18 06:25:28;;;;;;;7.50;5.20;;;;;;;20.30;100.00;97592.88;1222783;75;2928488;-72
2023/09/18 06:28:00;;;;;;;5.60;5.00;;;;;;;22.93;94.83;97585.47;1223980;75;2928756;-74
2023/09/18 06:30:37;;;;;;;4.00;3.60;;;;;;;25.15;75.96;97579.66;1221343;75;2925470;-74
2023/09/18 06:33:11;;;;;;;7.70;4.95;;;;;;;24.53;78.00;97590.75;1222324;75;2925909;-76
2023/09/18 06:35:44;;;;;;;5.40;4.85;;;;;;;23.81;83.28;97591.09;1224119;75;2907451;-70
2023/09/18 06:38:17;;;;;;;8.50;5.45;;;;;;;22.58;89.52;97598.38;1221164;75;3007836;-74
2023/09/18 06:40:50;;;;;;;6.10;4.60;;;;;;;22.52;89.92;97588.16;1222568;75;2925024;-73
2023/09/18 06:43:23;;;;;;;4.80;4.30;;;;;;;21.39;100.00;97599.31;1224527;75;2927893;-72
2023/09/18 06:45:58;;;;;;;5.10;4.05;;;;;;;21.01;100.00;97602.66;1223270;75;2931842;-75
2023/09/18 06:48:32;;;;;;;4.90;4.20;;;;;;;20.63;100.00;97600.38;1223393;75;2981499;-75
2023/09/18 06:51:06;;;;;;;4.25;3.75;;;;;;;21.47;100.00;97591.72;1222215;75;2926305;-73
2023/09/18 06:53:38;;;;;;;6.05;4.20;;;;;;;20.99;100.00;97582.97;1222670;75;2905584;-73
2023/09/18 06:56:12;;;;;;;4.40;3.90;;;;;;;21.00;100.00;97583.75;1223577;75;2929995;-75
2023/09/18 06:58:45;;;;;;;4.60;3.85;;;;;;;21.44;100.00;97584.50;1224277;75;2919506;-75
2023/09/18 07:01:20;;;;;;;4.75;4.30;;;;;;;22.08;100.00;97579.97;1222486;75;2926098;-74
2023/09/18 07:03:54;;;;;;;4.65;4.15;;;;;;;22.06;100.00;97574.22;1225684;75;2820017;-76
2023/09/18 07:06:30;;;;;;;6.30;4.00;;;;;;;21.94;100.00;97573.09;1223700;75;2953539;-74
2023/09/18 07:09:04;;;;;;;4.40;3.70;;;;;;;21.75;100.00;97567.84;1224520;75;2924355;-75
2023/09/18 07:11:37;;;;;;;3.85;3.50;;;;;;;22.24;100.00;97555.63;1224151;75;2926141;-73
2023/09/18 07:14:09;;;;;;;4.05;3.40;;;;;;;22.60;100.00;97562.28;1224478;75;2916999;-75
2023/09/18 07:16:45;;;;;;;2.95;2.60;;;;;;;22.69;100.00;97556.88;1225304;75;2912088;-71
2023/09/18 07:19:18;;;;;;;2.60;2.40;;;;;;;23.03;98.14;97555.69;1224319;75;2918514;-72
2023/09/18 07:21:51;;;;;;;3.45;2.55;;;;;;;22.61;100.00;97553.38;1224729;75;2921478;-74
2023/09/18 07:24:24;;;;;;;5.35;3.80;;;;;;;22.17;100.00;97553.56;1224272;75;2939423;-76
2023/09/18 07:26:57;;;;;;;4.70;3.85;;;;;;;22.10;100.00;97551.50;1225041;75;2919267;-74
2023/09/18 07:29:34;;;;;;;3.95;3.55;;;;;;;22.52;100.00;97549.09;1224685;75;2916536;-72
2023/09/18 07:32:09;;;;;;;4.95;3.65;;;;;;;22.65;100.00;97569.72;1223475;75;2928015;-74
2023/09/18 07:34:42;;;;;;;3.45;3.10;;;;;;;23.11;100.00;97559.19;1225213;75;2915794;-74
2023/09/18 07:37:15;;;;;;;4.50;3.75;;;;;;;22.81;100.00;97564.88;1224921;75;2915460;-74
2023/09/18 07:39:48;;;;;;;5.75;4.65;;;;;;;22.00;100.00;97564.53;1224936;75;2921875;-78
2023/09/18 07:42:27;;;;;;;6.80;4.40;;;;;;;22.01;100.00;97564.00;1195792;75;4048375;-79
2023/09/18 07:45:01;;;;;;;8.25;5.00;;;;;;;22.18;100.00;97562.69;1187517;75;4067152;-79
2023/09/18 07:47:36;;;;;;;4.80;3.90;;;;;;;22.45;100.00;97582.59;1155411;75;8086554;-82
2023/09/18 07:50:10;;;;;;;4.30;3.90;;;;;;;22.48;100.00;97582.22;1208216;75;3976266;-82
2023/09/18 07:52:43;;;;;;;4.85;4.15;;;;;;;22.35;100.00;97585.22;1223664;75;2958600;-80
2023/09/18 07:55:17;;;;;;;5.38;4.68;;;;;;;21.87;100.00;97574.56;1174300;75;5882268;-77
2023/09/18 07:57:51;;;;;;;4.80;4.30;;;;;;;22.07;100.00;97566.56;1223395;75;3023759;-79
2023/09/18 08:00:25;;;;;;;6.90;5.35;;;;;;;21.83;100.00;97563.03;1221329;75;2962357;-80
2023/09/18 08:03:01;;;;;;;6.50;5.80;;;;;;;22.23;100.00;97568.09;1219249;75;3073647;-81
2023/09/18 08:05:34;;;;;;;7.85;7.05;;;;;;;22.10;100.00;97566.22;1224890;75;2918320;-80
2023/09/18 08:08:08;;;;;;;8.75;6.25;;;;;;;22.04;100.00;97568.44;1222500;75;3056011;-79
2023/09/18 08:10:43;;;;;;;5.85;5.15;;;;;;;21.66;100.00;97573.97;1224027;75;2966544;-81
2023/09/18 08:13:16;;;;;;;6.80;5.10;;;;;;;22.11;100.00;97573.28;1221115;75;2978370;-80
2023/09/18 08:15:49;;;;;;;6.30;4.50;;;;;;;22.63;100.00;97581.44;1193697;75;3980981;-80
2023/09/18 08:18:26;;;;;;;6.30;4.70;;;;;;;22.21;100.00;97579.06;1127758;75;8775236;-83
2023/09/18 08:21:00;;;;;;;5.10;4.35;;;;;;;23.20;100.00;97576.66;1213226;75;3899559;-81
2023/09/18 08:23:34;;;;;;;5.95;4.90;;;;;;;23.17;100.00;97572.97;1223866;75;2952375;-80
2023/09/18 08:26:07;;;;;;;7.70;5.85;;;;;;;23.61;100.00;97570.50;1224058;75;2924894;-79
2023/09/18 08:28:43;;;;;;;5.70;5.10;;;;;;;23.33;100.00;97566.00;1222471;75;3005483;-80
2023/09/18 08:31:20;;;;;;;5.97;5.38;;;;;;;22.95;100.00;97575.25;1160635;75;8975971;-76
2023/09/18 08:33:59;;;;;;;6.92;6.16;;;;;;;23.08;100.00;97556.78;1099763;75;13025470;-76
2023/09/18 08:36:32;;;;;;;5.70;5.20;;;;;;;23.22;100.00;97555.25;1211675;75;3987603;-79
2023/09/18 08:39:06;;;;;;;5.40;4.90;;;;;;;24.13;95.06;97553.22;1195796;75;4091122;-79
2023/09/18 08:41:44;;;;;;;5.45;4.30;;;;;;;24.87;90.81;97550.88;1197566;75;4980445;-78
2023/09/18 08:44:18;;;;;;;4.00;3.50;;;;;;;24.78;86.59;97543.13;1198911;75;5042132;-80
2023/09/18 08:46:50;;;;;;;3.40;3.10;;;;;;;25.61;84.01;97543.38;1223368;75;2946802;-80
2023/09/18 08:49:28;;;;;;;4.65;3.60;;;;;;;25.80;80.05;97534.31;1224427;75;2915671;-78
2023/09/18 08:52:04;;;;;;;3.40;3.10;;;;;;;27.04;73.36;97532.97;1199809;75;4974399;-77
2023/09/18 08:54:41;;;;;;;4.15;3.15;;;;;;;27.19;74.25;97524.25;1224794;75;2945932;-79
2023/09/18 08:57:14;;;;;;;5.35;3.90;;;;;;;25.84;77.21;97529.03;1224075;75;2964095;-80
2023/09/18 08:59:48;;;;;;;4.30;3.35;;;;;;;27.19;71.09;97515.81;1220904;75;3080490;-79
2023/09/18 09:02:20;;;;;;;4.90;4.10;;;;;;;25.97;76.03;97515.97;1210135;75;3891252;-77
2023/09/18 09:04:55;;;;;;;5.40;4.00;;;;;;;25.53;79.99;97508.41;1220626;75;3100375;-80
2023/09/18 09:07:31;;;;;;;4.15;3.75;;;;;;;26.13;77.84;97501.09;1224835;75;2927061;-79
2023/09/18 09:10:03;;;;;;;4.65;4.05;;;;;;;25.81;77.48;97498.59;1224469;75;2927764;-76
2023/09/18 09:12:59;;;;;;;4.70;3.85;;;;;;;25.44;80.39;97493.00;1225190;75;2925356;-78
2023/09/18 09:15:35;;;;;;;4.80;3.65;;;;;;;25.35;81.25;97490.88;1221419;75;3107873;-78
2023/09/18 09:18:11;;;;;;;5.70;4.20;;;;;;;25.13;83.59;97490.59;1224231;75;2984663;-78
2023/09/18 09:20:58;;;;;;;6.50;4.40;;;;;;;25.34;82.14;97478.94;1208849;75;4070744;-76
2023/09/18 09:23:45;;;;;;;3.10;2.80;;;;;;;27.09;72.71;97470.13;1221565;75;3030207;-79
2023/09/18 09:26:20;;;;;;;4.80;4.30;;;;;;;26.50;74.54;97467.31;1184349;75;5702978;-77
2023/09/18 09:28:53;;;;;;;4.30;3.90;;;;;;;26.37;73.58;97467.03;1219545;75;3076549;-77
2023/09/18 09:31:31;;;;;;;5.45;3.85;;;;;;;25.92;76.17;97479.19;1210503;75;4019386;-79
2023/09/18 09:34:05;;;;;;;3.60;3.30;;;;;;;25.99;76.46;97474.06;1221546;75;3083716;-75
2023/09/18 09:36:54;;;;;;;4.10;3.70;;;;;;;26.11;74.46;97470.09;1222921;75;3070477;-78
2023/09/18 09:39:27;;;;;;;3.35;2.80;;;;;;;26.95;70.93;97469.84;1210204;75;3991813;-78
2023/09/18 09:42:04;;;;;;;8.15;5.95;;;;;;;25.71;76.51;97476.91;1224672;75;2938298;-79
2023/09/18 09:44:37;;;;;;;4.55;4.15;;;;;;;26.04;76.80;97465.34;1209070;75;3970025;-79
2023/09/18 09:47:11;;;;;;;6.20;3.70;;;;;;;25.15;82.73;97473.22;1212040;75;3908410;-80
2023/09/18 09:49:50;;;;;;;3.70;3.30;;;;;;;24.99;82.44;97472.66;1220218;75;3031103;-76
2023/09/18 09:52:26;;;;;;;4.95;3.40;;;;;;;25.56;82.07;97460.31;1222332;75;2928945;-76
2023/09/18 09:54:58;;;;;;;4.60;4.00;;;;;;;25.72;79.15;97464.34;1220016;75;3087537;-80
2023/09/18 09:57:31;;;;;;;6.35;3.70;;;;;;;25.22;81.44;97452.78;1221294;75;3095210;-78
2023/09/18 10:00:25;;;;;;;4.00;3.50;;;;;;;25.77;79.55;97448.59;1217929;75;3100034;-79
2023/09/18 10:03:08;;;;;;;4.50;4.10;;;;;;;25.13;83.00;97456.25;1221604;75;2976983;-76
2023/09/18 10:05:44;;;;;;;6.00;4.30;;;;;;;25.19;83.36;97442.75;1210009;75;3981137;-75
2023/09/18 10:08:25;;;;;;;4.30;3.70;;;;;;;25.46;78.93;97446.25;1219793;75;3077723;-80
2023/09/18 10:11:03;;;;;;;4.25;3.40;;;;;;;25.27;80.58;97446.91;1224143;75;2920495;-77
2023/09/18 10:13:46;;;;;;;4.60;3.50;;;;;;;25.52;77.69;97434.78;1222944;75;2936931;-77
2023/09/18 10:16:25;;;;;;;6.55;3.95;;;;;;;25.11;83.63;97434.44;1206962;83;4080186;-76
2023/09/18 10:19:10;;;;;;;4.30;3.40;;;;;;;25.34;79.17;97430.56;1210702;75;3946873;-76
2023/09/18 10:21:54;;;;;;;3.65;3.35;;;;;;;25.31;82.58;97432.47;1222661;75;2940134;-79
2023/09/18 10:24:36;;;;;;;4.00;3.60;;;;;;;25.59;79.11;97436.72;1217180;75;3085072;-79
2023/09/18 10:27:11;;;;;;;4.00;3.60;;;;;;;25.56;79.79;97451.16;1217382;75;3114713;-78
2023/09/18 10:29:45;;;;;;;4.60;3.70;;;;;;;25.47;77.96;97442.16;1223219;75;2927215;-79
2023/09/18 10:32:20;;;;;;;4.05;3.65;;;;;;;25.38;78.30;97434.44;1219646;75;3010993;-78
2023/09/18 10:34:53;;;;;;;6.25;4.20;;;;;;;25.19;81.62;97428.75;1203194;75;4025557;-79
2023/09/18 10:37:27;;;;;;;4.20;3.50;;;;;;;25.56;77.28;97432.28;1220225;75;3033781;-78
2023/09/18 10:40:04;;;;;;;5.05;4.55;;;;;;;25.23;76.33;97423.44;1223486;75;2920663;-79
2023/09/18 10:42:38;;;;;;;4.70;4.20;;;;;;;25.80;74.78;97413.03;1219082;75;3045498;-79
2023/09/18 10:45:15;;;;;;;8.80;5.40;;;;;;;25.16;76.39;97413.81;1220253;75;3045908;-79
2023/09/18 10:47:51;;;;;;;5.50;4.70;;;;;;;25.61;75.75;97405.28;1222307;75;2968258;-76
2023/09/18 10:50:32;;;;;;;4.25;3.85;;;;;;;25.66;76.14;97405.03;1215243;75;3099931;-75
2023/09/18 10:53:05;;;;;;;4.25;3.70;;;;;;;26.45;71.49;97392.56;1219496;75;2961591;-77
2023/09/18 10:55:41;;;;;;;4.70;3.70;;;;;;;26.77;70.90;97401.84;1219339;75;3010540;-77
2023/09/18 10:58:15;;;;;;;4.30;3.65;;;;;;;26.79;71.65;97393.56;1220254;75;3102239;-78
2023/09/18 11:00:48;;;;;;;4.85;4.15;;;;;;;26.36;71.80;97387.69;1218952;75;2981952;-79
2023/09/18 11:03:21;;;;;;;3.60;3.30;;;;;;;26.99;70.43;97386.59;1209540;75;3843020;-76
2023/09/18 11:06:10;;;;;;;3.50;3.20;;;;;;;27.19;68.67;97386.53;1218565;75;3070782;-77
2023/09/18 11:08:47;;;;;;;;;;;;;;;26.58;71.75;97385.03;1224976;75;2927606;-79
2023/09/18 11:11:25;;;;;;;4.50;4.10;;;;;;;26.22;74.37;97383.88;1217177;75;3094502;-77
2023/09/18 11:13:59;;;;;;;;;;;;;;;26.81;72.81;97378.94;1223953;75;2923675;-75
2023/09/18 11:16:41;;;;;;;4.05;3.55;;;;;;;26.80;74.33;97377.47;1222609;75;2931196;-78
2023/09/18 11:19:19;;;;;;;4.25;3.70;;;;;;;26.30;73.28;97376.03;1221318;75;2922002;-76
2023/09/18 11:22:10;;;;;;;3.90;3.55;;;;;;;26.63;71.07;97372.78;1221450;75;3073048;-78
2023/09/18 11:24:42;;;;;;;5.90;3.65;;;;;;;26.29;73.38;97371.72;1219136;75;3074191;-76
2023/09/18 11:27:18;;;;;;;4.60;4.20;;;;;;;26.91;71.08;97371.22;1217541;75;3099992;-78
2023/09/18 11:29:58;;;;;;;5.10;4.50;;;;;;;26.44;73.21;97374.25;1210672;75;3954144;-78
2023/09/18 11:32:43;;;;;;;3.40;3.10;;;;;;;27.82;68.10;97371.13;1221775;75;3037590;-78
2023/09/18 11:35:18;;;;;;;4.00;3.40;;;;;;;27.61;69.25;97374.66;1223301;75;2932041;-77
2023/09/18 11:38:06;;;;;;;3.20;2.75;;;;;;;28.19;66.31;97372.78;1224244;75;2919468;-78
2023/09/18 11:40:41;;;;;;;4.50;2.60;;;;;;;29.05;64.56;97373.28;1221900;75;2928039;-78
2023/09/18 11:43:35;;;;;;;3.15;2.80;;;;;;;28.77;66.93;97366.66;1219337;75;2989144;-79
2023/09/18 11:46:08;;;;;;;3.40;2.95;;;;;;;28.74;64.61;97359.41;1220267;75;2984820;-79